createdAt,value
2022-09-14T00:00:45.596Z,99943.81
2022-09-14T00:03:12.309Z,99945.13
2022-09-14T00:05:38.993Z,99941.16
2022-09-14T00:08:05.555Z,99942.84
2022-09-14T00:10:32.167Z,99941.41
2022-09-14T00:12:59.631Z,99931.59
2022-09-14T00:15:26.482Z,99935.13
2022-09-14T00:17:53.057Z,99937.41
2022-09-14T00:20:19.629Z,99931.47
2022-09-14T00:22:46.225Z,99931.91
2022-09-14T00:25:12.806Z,99932.91
2022-09-14T00:27:39.396Z,99926.38
2022-09-14T00:30:06.545Z,99922.75
2022-09-14T00:32:33.130Z,99917.81
2022-09-14T00:34:59.701Z,99907.78
2022-09-14T00:37:26.254Z,99908.63
2022-09-14T00:39:52.914Z,99912.59
2022-09-14T00:42:19.663Z,99906.44
2022-09-14T00:44:46.164Z,99913.88
2022-09-14T00:47:12.882Z,99911.91
2022-09-14T00:49:40.745Z,99910.97
2022-09-14T00:52:17.842Z,99907.69
2022-09-14T00:54:55.439Z,99915.06
2022-09-14T00:57:22.193Z,99907.16
2022-09-14T00:59:49.404Z,99907.16
2022-09-14T01:02:16.294Z,99909.25
2022-09-14T01:04:43.390Z,99910.06
2022-09-14T01:07:19.470Z,99908.16
2022-09-14T01:10:10.399Z,99909.09
2022-09-14T01:13:09.810Z,99902.13
2022-09-14T01:15:58.635Z,99908.81
2022-09-14T01:18:28.555Z,99905.66
2022-09-14T01:21:07.399Z,99904.19
2022-09-14T01:23:36.679Z,99903.66
2022-09-14T01:26:16.840Z,99897.62
2022-09-14T01:29:03.085Z,99894.25
2022-09-14T01:31:55.178Z,99893.03
2022-09-14T01:34:32.971Z,99893.13
2022-09-14T01:37:26.369Z,99885.44
2022-09-14T01:39:56.004Z,99892.84
2022-09-14T01:42:23.340Z,99882.59
2022-09-14T01:44:53.963Z,99877.97
2022-09-14T01:47:27.557Z,99874.69
2022-09-14T01:49:57.604Z,99881.59
2022-09-14T01:52:26.903Z,99884.69
2022-09-14T01:54:56.978Z,99875.78
2022-09-14T01:57:35.849Z,99876.22
2022-09-14T02:00:11.029Z,99870.91
2022-09-14T02:02:39.744Z,99870.44
2022-09-14T02:05:43.530Z,99862.25
2022-09-14T02:08:10.385Z,99857.19
2022-09-14T02:10:37.490Z,99855.59
2022-09-14T02:13:04.101Z,99853.72
2022-09-14T02:15:30.947Z,99857.00
2022-09-14T02:17:57.411Z,99853.97
2022-09-14T02:20:29.021Z,99845.25
2022-09-14T02:22:55.428Z,99842.81
2022-09-14T02:25:21.878Z,99844.81
2022-09-14T02:27:48.903Z,99848.03
2022-09-14T02:30:15.852Z,99840.31
2022-09-14T02:33:08.416Z,99834.06
2022-09-14T02:35:36.518Z,99831.28
2022-09-14T02:38:20.454Z,99832.47
2022-09-14T02:41:03.132Z,99836.19
2022-09-14T02:43:48.400Z,99834.63
2022-09-14T02:46:24.027Z,99822.56
2022-09-14T02:49:05.084Z,99827.75
2022-09-14T02:51:33.511Z,99816.09
2022-09-14T02:54:01.627Z,99808.88
2022-09-14T02:56:28.332Z,99817.22
2022-09-14T02:58:54.730Z,99828.03
2022-09-14T03:01:22.778Z,99828.16
2022-09-14T03:03:49.497Z,99817.97
2022-09-14T03:06:15.905Z,99817.56
2022-09-14T03:08:42.495Z,99801.78
2022-09-14T03:11:08.893Z,99806.97
2022-09-14T03:13:35.863Z,99808.44
2022-09-14T03:16:09.003Z,99801.16
2022-09-14T03:18:35.694Z,99804.28
2022-09-14T03:21:12.180Z,99803.44
2022-09-14T03:23:42.394Z,99798.16
2022-09-14T03:26:12.794Z,99796.25
2022-09-14T03:28:39.203Z,99802.37
2022-09-14T03:31:06.011Z,99805.56
2022-09-14T03:33:32.496Z,99809.47
2022-09-14T03:35:59.132Z,99811.75
2022-09-14T03:38:30.022Z,99798.41
2022-09-14T03:40:57.987Z,99794.69
2022-09-14T03:43:24.414Z,99794.75
2022-09-14T03:45:50.803Z,99789.00
2022-09-14T03:48:17.451Z,99794.75
2022-09-14T03:50:43.856Z,99798.34
2022-09-14T03:53:10.225Z,99804.63
2022-09-14T03:55:36.660Z,99800.41
2022-09-14T03:58:03.326Z,99800.44
2022-09-14T04:00:29.939Z,99794.03
2022-09-14T04:02:58.253Z,99809.81
2022-09-14T04:05:24.689Z,99813.66
2022-09-14T04:07:51.158Z,99807.28
2022-09-14T04:10:17.762Z,99802.34
2022-09-14T04:12:44.171Z,99812.28
2022-09-14T04:15:10.631Z,99805.81
2022-09-14T04:17:37.058Z,99798.50
2022-09-14T04:20:03.673Z,99797.75
2022-09-14T04:22:30.137Z,99786.44
2022-09-14T04:24:56.576Z,99783.09
2022-09-14T04:27:23.268Z,99775.50
2022-09-14T04:29:50.412Z,99768.84
2022-09-14T04:32:17.101Z,99767.03
2022-09-14T04:34:43.527Z,99777.53
2022-09-14T04:37:10.077Z,99759.22
2022-09-14T04:39:36.693Z,99758.38
2022-09-14T04:42:03.125Z,99763.28
2022-09-14T04:44:29.656Z,99768.00
2022-09-14T04:46:56.164Z,99763.19
2022-09-14T04:49:22.672Z,99772.22
2022-09-14T04:51:49.102Z,99768.00
2022-09-14T04:54:16.182Z,99768.00
2022-09-14T04:56:42.581Z,99762.19
2022-09-14T04:59:09.056Z,99753.12
2022-09-14T05:01:36.705Z,99743.63
2022-09-14T05:04:03.714Z,99745.91
2022-09-14T05:06:31.019Z,99756.31
2022-09-14T05:08:57.500Z,99761.50
2022-09-14T05:11:24.754Z,99758.97
2022-09-14T05:13:51.220Z,99752.59
2022-09-14T05:16:27.603Z,99759.34
2022-09-14T05:18:54.857Z,99765.81
2022-09-14T05:21:21.381Z,99761.62
2022-09-14T05:23:47.862Z,99770.63
2022-09-14T05:26:14.278Z,99778.75
2022-09-14T05:28:40.761Z,99781.59
2022-09-14T05:31:07.797Z,99771.28
2022-09-14T05:33:34.360Z,99774.56
2022-09-14T05:36:01.553Z,99770.19
2022-09-14T05:38:29.358Z,99765.50
2022-09-14T05:40:55.824Z,99745.78
2022-09-14T05:43:22.747Z,99732.78
2022-09-14T05:45:49.574Z,99734.59
2022-09-14T05:48:15.949Z,99744.38
2022-09-14T05:50:42.405Z,99744.22
2022-09-14T05:53:08.794Z,99755.78
2022-09-14T05:55:35.238Z,99752.13
2022-09-14T05:58:01.959Z,99753.03
2022-09-14T06:00:29.497Z,99759.06
2022-09-14T06:02:55.914Z,99762.03
2022-09-14T06:05:22.404Z,99766.03
2022-09-14T06:07:52.471Z,99774.09
2022-09-14T06:10:21.219Z,99768.50
2022-09-14T06:12:48.821Z,99770.69
2022-09-14T06:15:18.109Z,99765.88
2022-09-14T06:17:44.542Z,99754.88
2022-09-14T06:20:10.981Z,99750.91
2022-09-14T06:22:37.579Z,99748.84
2022-09-14T06:25:04.063Z,99745.41
2022-09-14T06:27:30.516Z,99745.84
2022-09-14T06:29:57.105Z,99762.69
2022-09-14T06:32:23.509Z,99758.22
2022-09-14T06:34:49.941Z,99752.44
2022-09-14T06:37:16.437Z,99748.63
2022-09-14T06:39:42.958Z,99747.91
2022-09-14T06:42:09.450Z,99741.31
2022-09-14T06:44:35.895Z,99750.72
2022-09-14T06:47:02.331Z,99765.03
2022-09-14T06:49:28.992Z,99781.16
2022-09-14T06:51:57.489Z,99780.13
2022-09-14T06:54:24.025Z,99779.84
2022-09-14T06:56:50.518Z,99789.88
2022-09-14T06:59:17.777Z,99786.72
2022-09-14T07:01:49.746Z,99782.97
2022-09-14T07:04:16.440Z,99779.25
2022-09-14T07:06:44.061Z,99761.28
2022-09-14T07:09:10.514Z,99758.25
2022-09-14T07:11:37.011Z,99751.03
2022-09-14T07:14:03.402Z,99752.59
2022-09-14T07:16:30.184Z,99757.41
2022-09-14T07:18:56.966Z,99760.31
2022-09-14T07:21:23.507Z,99754.06
2022-09-14T07:23:49.915Z,99748.38
2022-09-14T07:26:23.176Z,99757.31
2022-09-14T07:28:50.474Z,99781.91
2022-09-14T07:31:18.944Z,99781.66
2022-09-14T07:33:45.744Z,99774.78
2022-09-14T07:36:12.555Z,99767.94
2022-09-14T07:39:01.280Z,99760.69
2022-09-14T07:41:26.217Z,99754.66
2022-09-14T07:43:53.145Z,99762.25
2022-09-14T07:46:20.012Z,99763.94
2022-09-14T07:48:46.676Z,99763.72
2022-09-14T07:51:13.107Z,99760.19
2022-09-14T07:53:40.503Z,99758.63
2022-09-14T07:56:07.571Z,99755.09
2022-09-14T07:58:33.995Z,99754.78
2022-09-14T08:01:04.613Z,99759.94
2022-09-14T08:03:31.661Z,99749.34
2022-09-14T08:06:01.779Z,99760.06
2022-09-14T08:08:29.409Z,99760.19
2022-09-14T08:10:57.202Z,99739.06
2022-09-14T08:13:23.623Z,99737.94
2022-09-14T08:15:50.056Z,99730.53
2022-09-14T08:18:16.551Z,99725.19
2022-09-14T08:20:43.057Z,99716.88
2022-09-14T08:23:09.629Z,99712.84
2022-09-14T08:25:36.053Z,99723.78
2022-09-14T08:28:02.529Z,99732.63
2022-09-14T08:30:29.039Z,99730.78
2022-09-14T08:32:58.959Z,99728.47
2022-09-14T08:35:56.093Z,99729.00
2022-09-14T08:38:14.589Z,99732.56
2022-09-14T08:40:45.277Z,99721.47
2022-09-14T08:43:12.211Z,99729.94
2022-09-14T08:45:39.667Z,99726.66
2022-09-14T08:48:06.578Z,99721.31
2022-09-14T08:50:36.909Z,99713.47
2022-09-14T08:53:05.707Z,99718.63
2022-09-14T08:55:32.172Z,99718.19
2022-09-14T08:58:03.657Z,99705.09
2022-09-14T09:00:33.815Z,99700.66
2022-09-14T09:03:03.349Z,99692.47
2022-09-14T09:05:48.617Z,99702.69
2022-09-14T09:08:19.807Z,99697.13
2022-09-14T09:10:58.703Z,99712.06
2022-09-14T09:13:26.371Z,99710.81
2022-09-14T09:15:53.432Z,99706.13
2022-09-14T09:18:22.649Z,99702.59
2022-09-14T09:20:52.603Z,99697.91
2022-09-14T09:23:19.958Z,99704.44
2022-09-14T09:25:54.642Z,99711.47
2022-09-14T09:28:21.526Z,99719.13
2022-09-14T09:30:49.249Z,99729.84
2022-09-14T09:33:16.234Z,99736.69
2022-09-14T09:35:42.687Z,99738.56
2022-09-14T09:38:12.643Z,99737.13
2022-09-14T09:40:41.434Z,99746.03
2022-09-14T09:43:24.228Z,99755.22
2022-09-14T09:46:00.766Z,99752.34
2022-09-14T09:48:47.450Z,99758.72
2022-09-14T09:51:15.363Z,99750.19
2022-09-14T09:53:59.787Z,99745.25
2022-09-14T09:56:27.884Z,99751.75
2022-09-14T09:58:54.389Z,99751.41
2022-09-14T10:01:23.321Z,99746.59
2022-09-14T10:04:06.642Z,99742.37
2022-09-14T10:06:40.394Z,99742.72
2022-09-14T10:09:13.007Z,99744.22
2022-09-14T10:11:39.847Z,99742.13
2022-09-14T10:14:06.602Z,99753.31
2022-09-14T10:16:34.746Z,99758.84
2022-09-14T10:19:03.239Z,99755.09
2022-09-14T10:21:31.419Z,99770.91
2022-09-14T10:24:03.807Z,99764.37
2022-09-14T10:26:32.306Z,99760.38
2022-09-14T10:29:16.396Z,99743.94
2022-09-14T10:31:42.878Z,99740.41
2022-09-14T10:34:16.748Z,99741.06
2022-09-14T10:36:47.327Z,99739.22
2022-09-14T10:39:16.726Z,99735.66
2022-09-14T10:41:58.459Z,99728.84
2022-09-14T10:44:27.911Z,99728.06
2022-09-14T10:46:54.355Z,99725.72
2022-09-14T10:49:23.901Z,99719.66
2022-09-14T10:51:53.391Z,99727.47
2022-09-14T10:54:27.151Z,99723.72
2022-09-14T10:57:04.223Z,99733.38
2022-09-14T10:59:57.215Z,99738.53
2022-09-14T11:02:25.170Z,99734.28
2022-09-14T11:05:00.930Z,99735.34
2022-09-14T11:07:46.505Z,99734.94
2022-09-14T11:10:18.855Z,99732.63
2022-09-14T11:12:49.984Z,99737.59
2022-09-14T11:15:22.052Z,99727.66
2022-09-14T11:17:51.483Z,99723.12
2022-09-14T11:20:21.171Z,99712.34
2022-09-14T11:23:13.728Z,99706.31
2022-09-14T11:25:43.552Z,99709.28
2022-09-14T11:28:11.017Z,99708.06
2022-09-14T11:30:42.286Z,99707.41
2022-09-14T11:33:31.174Z,99705.38
2022-09-14T11:35:59.512Z,99703.13
2022-09-14T11:38:32.205Z,99697.97
2022-09-14T11:41:17.247Z,99711.00
2022-09-14T11:44:02.150Z,99706.03
2022-09-14T11:46:33.017Z,99697.94
2022-09-14T11:49:05.654Z,99686.22
2022-09-14T11:51:47.549Z,99683.03
2022-09-14T11:54:18.472Z,99682.69
2022-09-14T11:56:47.205Z,99668.22
2022-09-14T11:59:31.920Z,99675.81
2022-09-14T12:01:58.376Z,99678.81
2022-09-14T12:04:24.856Z,99681.59
2022-09-14T12:06:52.051Z,99679.28
2022-09-14T12:09:21.349Z,99681.47
2022-09-14T12:11:58.530Z,99679.09
2022-09-14T12:14:44.632Z,99674.63
2022-09-14T12:17:37.818Z,99664.09
2022-09-14T12:20:20.787Z,99668.44
2022-09-14T12:22:50.089Z,99655.44
2022-09-14T12:25:18.107Z,99653.91
2022-09-14T12:27:45.063Z,99651.72
2022-09-14T12:30:30.041Z,99645.00
2022-09-14T12:32:56.453Z,99644.66
2022-09-14T12:35:37.112Z,99644.78
2022-09-14T12:38:39.323Z,99652.81
2022-09-14T12:41:08.333Z,99635.19
2022-09-14T12:43:37.826Z,99646.44
2022-09-14T12:46:04.868Z,99629.28
2022-09-14T12:48:46.970Z,99627.25
2022-09-14T12:51:14.955Z,99622.56
2022-09-14T12:53:41.401Z,99621.78
2022-09-14T12:56:19.337Z,99614.53
2022-09-14T12:58:59.851Z,99605.03
2022-09-14T13:01:26.349Z,99601.94
2022-09-14T13:03:56.496Z,99588.41
2022-09-14T13:06:23.320Z,99588.34
2022-09-14T13:08:50.652Z,99586.38
2022-09-14T13:11:20.963Z,99576.13
2022-09-14T13:13:49.167Z,99573.66
2022-09-14T13:16:17.848Z,99578.50
2022-09-14T13:18:47.150Z,99581.13
2022-09-14T13:21:20.824Z,99585.66
2022-09-14T13:23:47.345Z,99584.78
2022-09-14T13:26:20.822Z,99583.41
2022-09-14T13:28:48.301Z,99578.03
2022-09-14T13:31:17.207Z,99578.31
2022-09-14T13:33:47.872Z,99584.75
2022-09-14T13:36:16.364Z,99586.59
2022-09-14T13:38:42.892Z,99575.81
2022-09-14T13:41:11.267Z,99582.06
2022-09-14T13:43:37.752Z,99593.12
2022-09-14T13:46:05.233Z,99586.72
2022-09-14T13:48:31.719Z,99591.25
2022-09-14T13:51:01.301Z,99587.97
2022-09-14T13:53:37.897Z,99588.94
2022-09-14T13:56:23.267Z,99601.19
2022-09-14T13:58:50.424Z,99587.75
2022-09-14T14:01:24.109Z,99577.59
2022-09-14T14:03:50.659Z,99573.00
2022-09-14T14:06:23.780Z,99569.81
2022-09-14T14:08:54.238Z,99569.81
2022-09-14T14:11:50.238Z,99570.97
2022-09-14T14:14:16.644Z,99568.41
2022-09-14T14:17:03.666Z,99559.63
2022-09-14T14:19:31.092Z,99552.84
2022-09-14T14:22:15.759Z,99547.56
2022-09-14T14:25:09.055Z,99552.37
2022-09-14T14:27:29.252Z,99548.28
2022-09-14T14:29:55.989Z,99546.03
2022-09-14T14:32:22.385Z,99550.81
2022-09-14T14:34:49.065Z,99551.66
2022-09-14T14:37:15.897Z,99539.56
2022-09-14T14:39:48.940Z,99541.31
2022-09-14T14:42:16.188Z,99537.97
2022-09-14T14:44:43.035Z,99533.69
2022-09-14T14:47:16.847Z,99531.94
2022-09-14T14:49:43.334Z,99528.37
2022-09-14T14:52:10.093Z,99516.25
2022-09-14T14:54:36.706Z,99508.88
2022-09-14T14:57:13.373Z,99504.22
2022-09-14T14:59:43.963Z,99511.38
2022-09-14T15:02:15.884Z,99519.16
2022-09-14T15:04:42.279Z,99519.72
2022-09-14T15:07:09.356Z,99522.09
2022-09-14T15:09:36.187Z,99524.44
2022-09-14T15:12:11.004Z,99517.91
2022-09-14T15:14:48.057Z,99515.06
2022-09-14T15:17:16.054Z,99505.00
2022-09-14T15:19:47.685Z,99498.78
2022-09-14T15:22:20.641Z,99496.13
2022-09-14T15:24:47.068Z,99495.91
2022-09-14T15:27:16.436Z,99498.13
2022-09-14T15:29:48.777Z,99495.91
2022-09-14T15:32:15.475Z,99478.34
2022-09-14T15:34:42.166Z,99471.59
2022-09-14T15:37:08.966Z,99478.81
2022-09-14T15:39:38.114Z,99475.78
2022-09-14T15:42:05.246Z,99467.91
2022-09-14T15:44:37.972Z,99460.63
2022-09-14T15:47:04.547Z,99459.44
2022-09-14T15:49:31.069Z,99455.25
2022-09-14T15:51:57.588Z,99444.66
2022-09-14T15:54:24.712Z,99449.00
2022-09-14T15:56:51.803Z,99449.38
2022-09-14T15:59:18.724Z,99446.31
2022-09-14T16:01:45.628Z,99457.94
2022-09-14T16:04:12.580Z,99453.53
2022-09-14T16:06:39.351Z,99472.34
2022-09-14T16:09:06.721Z,99486.03
2022-09-14T16:11:36.502Z,99484.69
2022-09-14T16:14:03.109Z,99479.97
2022-09-14T16:16:30.409Z,99484.03
2022-09-14T16:18:57.399Z,99502.31
2022-09-14T16:21:24.597Z,99511.00
2022-09-14T16:23:53.322Z,99495.94
2022-09-14T16:26:20.785Z,99491.28
2022-09-14T16:28:47.514Z,99499.31
2022-09-14T16:31:17.321Z,99499.81
2022-09-14T16:33:45.735Z,99499.63
2022-09-14T16:36:13.486Z,99489.75
2022-09-14T16:38:39.933Z,99494.94
2022-09-14T16:41:06.520Z,99487.25
2022-09-14T16:43:33.229Z,99494.09
2022-09-14T16:46:00.592Z,99472.34
2022-09-14T16:48:27.082Z,99475.19
2022-09-14T16:50:53.778Z,99472.69
2022-09-14T16:53:20.216Z,99471.31
2022-09-14T16:55:46.795Z,99474.03
2022-09-14T16:58:13.224Z,99473.88
2022-09-14T17:00:43.581Z,99475.87
2022-09-14T17:03:10.857Z,99467.50
2022-09-14T17:05:37.423Z,99461.00
2022-09-14T17:08:03.832Z,99451.66
2022-09-14T17:10:32.972Z,99455.31
2022-09-14T17:12:59.405Z,99458.16
2022-09-14T17:15:25.883Z,99456.09
2022-09-14T17:17:52.565Z,99461.00
2022-09-14T17:20:19.007Z,99451.47
2022-09-14T17:22:45.484Z,99449.47
2022-09-14T17:25:16.216Z,99435.91
2022-09-14T17:27:43.567Z,99433.09
2022-09-14T17:30:10.449Z,99432.56
2022-09-14T17:32:37.025Z,99430.03
2022-09-14T17:35:03.841Z,99423.84
2022-09-14T17:37:30.291Z,99423.34
2022-09-14T17:39:56.826Z,99419.84
2022-09-14T17:42:23.349Z,99420.88
2022-09-14T17:44:49.923Z,99425.03
2022-09-14T17:47:16.453Z,99421.16
2022-09-14T17:49:43.103Z,99420.84
2022-09-14T17:52:09.543Z,99408.47
2022-09-14T17:54:36.034Z,99405.78
2022-09-14T17:57:02.521Z,99403.47
2022-09-14T17:59:28.968Z,99405.63
2022-09-14T18:01:55.408Z,99398.41
2022-09-14T18:04:22.856Z,99394.41
2022-09-14T18:06:49.946Z,99407.94
2022-09-14T18:09:17.240Z,99403.41
2022-09-14T18:11:44.785Z,99404.75
2022-09-14T18:14:12.891Z,99412.78
2022-09-14T18:16:39.588Z,99413.81
2022-09-14T18:19:06.312Z,99421.34
2022-09-14T18:21:32.750Z,99417.66
2022-09-14T18:23:59.184Z,99434.38
2022-09-14T18:26:25.585Z,99433.44
2022-09-14T18:28:53.555Z,99434.59
2022-09-14T18:31:20.059Z,99436.56
2022-09-14T18:33:53.659Z,99437.22
2022-09-14T18:36:20.489Z,99436.37
2022-09-14T18:38:48.597Z,99425.19
2022-09-14T18:41:15.546Z,99419.66
2022-09-14T18:43:45.926Z,99410.12
2022-09-14T18:46:12.652Z,99408.97
2022-09-14T18:48:40.859Z,99411.50
2022-09-14T18:51:07.407Z,99406.66
2022-09-14T18:53:33.840Z,99407.84
2022-09-14T18:56:03.976Z,99408.19
2022-09-14T18:58:34.643Z,99406.50
2022-09-14T19:01:01.450Z,99409.16
2022-09-14T19:03:28.006Z,99409.50
2022-09-14T19:05:54.448Z,99407.00
2022-09-14T19:08:21.203Z,99393.94
2022-09-14T19:10:47.658Z,99402.81
2022-09-14T19:13:14.130Z,99403.97
2022-09-14T19:15:41.102Z,99400.94
2022-09-14T19:18:08.011Z,99396.59
2022-09-14T19:21:02.152Z,99393.44
2022-09-14T19:23:24.836Z,99387.62
2022-09-14T19:25:51.280Z,99388.81
2022-09-14T19:28:17.765Z,99385.13
2022-09-14T19:30:44.223Z,99390.31
2022-09-14T19:33:10.639Z,99384.28
2022-09-14T19:35:37.162Z,99389.47
2022-09-14T19:38:03.593Z,99401.44
2022-09-14T19:40:30.118Z,99406.28
2022-09-14T19:42:56.806Z,99394.72
2022-09-14T19:45:23.324Z,99390.69
2022-09-14T19:47:49.741Z,99387.84
2022-09-14T19:50:16.318Z,99392.22
2022-09-14T19:52:42.777Z,99384.34
2022-09-14T19:55:09.450Z,99384.50
2022-09-14T19:57:37.565Z,99380.16
2022-09-14T20:00:05.088Z,99384.28
2022-09-14T20:02:38.697Z,99394.78
2022-09-14T20:05:05.920Z,99391.44
2022-09-14T20:07:35.175Z,99393.44
2022-09-14T20:10:02.129Z,99380.06
2022-09-14T20:12:28.602Z,99367.69
2022-09-14T20:14:55.021Z,99363.03
2022-09-14T20:17:22.082Z,99364.88
2022-09-14T20:19:48.471Z,99364.72
2022-09-14T20:22:16.822Z,99368.37
2022-09-14T20:24:43.645Z,99347.88
2022-09-14T20:27:10.062Z,99335.50
2022-09-14T20:29:36.527Z,99341.50
2022-09-14T20:32:03.204Z,99335.63
2022-09-14T20:34:29.845Z,99331.81
2022-09-14T20:36:56.346Z,99331.97
2022-09-14T20:39:23.010Z,99342.94
2022-09-14T20:41:49.670Z,99345.94
2022-09-14T20:44:16.990Z,99353.84
2022-09-14T20:46:43.965Z,99362.66
2022-09-14T20:49:11.327Z,99355.31
2022-09-14T20:51:37.926Z,99356.00
2022-09-14T20:54:05.027Z,99365.00
2022-09-14T20:56:32.156Z,99370.19
2022-09-14T20:59:03.864Z,99365.84
2022-09-14T21:01:31.234Z,99352.66
2022-09-14T21:04:06.086Z,99348.81
2022-09-14T21:06:32.627Z,99349.16
2022-09-14T21:09:00.029Z,99344.47
2022-09-14T21:11:26.530Z,99350.97
2022-09-14T21:13:53.612Z,99353.47
2022-09-14T21:16:21.010Z,99353.47
2022-09-14T21:18:47.864Z,99350.66
2022-09-14T21:21:17.040Z,99354.31
2022-09-14T21:23:43.530Z,99359.69
2022-09-14T21:26:10.289Z,99353.66
2022-09-14T21:28:37.260Z,99356.03
2022-09-14T21:31:03.658Z,99360.22
2022-09-14T21:33:31.302Z,99358.22
2022-09-14T21:36:01.976Z,99355.88
2022-09-14T21:38:28.390Z,99361.91
2022-09-14T21:40:54.833Z,99353.19
2022-09-14T21:43:21.215Z,99352.53
2022-09-14T21:45:47.655Z,99354.34
2022-09-14T21:48:14.368Z,99356.97
2022-09-14T21:50:44.099Z,99358.06
2022-09-14T21:53:13.927Z,99347.69
2022-09-14T21:55:40.680Z,99357.03
2022-09-14T21:58:07.066Z,99358.28
2022-09-14T22:00:33.497Z,99352.63
2022-09-14T22:02:59.961Z,99354.28
2022-09-14T22:05:26.447Z,99364.81
2022-09-14T22:07:52.883Z,99366.66
2022-09-14T22:10:19.726Z,99364.66
2022-09-14T22:12:47.899Z,99359.56
2022-09-14T22:15:15.983Z,99352.13
2022-09-14T22:17:42.634Z,99347.63
2022-09-14T22:20:09.125Z,99342.69
2022-09-14T22:22:35.551Z,99340.34
2022-09-14T22:25:02.027Z,99336.75
2022-09-14T22:46:07.798Z,99349.88
2022-09-14T22:48:34.242Z,99343.88
2022-09-14T22:51:00.935Z,99338.59
2022-09-14T22:53:27.537Z,99336.03
2022-09-14T22:55:54.181Z,99335.06
2022-09-14T22:58:22.173Z,99339.19
2022-09-14T23:00:48.547Z,99334.06
2022-09-14T23:03:15.386Z,99332.38
2022-09-14T23:05:48.729Z,99338.25
2022-09-14T23:08:15.264Z,99352.94
2022-09-14T23:10:41.807Z,99355.44
2022-09-14T23:13:08.230Z,99354.75
2022-09-14T23:15:37.531Z,99347.28
2022-09-14T23:18:04.172Z,99351.75
2022-09-14T23:20:31.091Z,99356.88
2022-09-14T23:22:57.605Z,99348.09
2022-09-14T23:25:24.061Z,99346.59
2022-09-14T23:27:50.482Z,99351.63
2022-09-14T23:30:16.907Z,99346.13
2022-09-14T23:32:43.312Z,99340.91
2022-09-14T23:35:11.652Z,99337.59
2022-09-14T23:37:38.081Z,99339.44
2022-09-14T23:40:04.777Z,99342.78
2022-09-14T23:42:31.274Z,99346.28
2022-09-14T23:44:57.691Z,99340.44
2022-09-14T23:47:24.121Z,99336.63
2022-09-14T23:49:50.501Z,99327.44
2022-09-14T23:52:20.087Z,99328.75
2022-09-14T23:54:48.923Z,99326.38
2022-09-14T23:57:15.444Z,99320.88
2022-09-14T23:59:44.873Z,99319.31
